Ronald Reagan Washington National Airport Washington US
ICAO: KDCA
IATA: DCA
Category: Large
Scheduled Services: Yes

Elevation: 15 ft
TransAlt. 18000 ft.

Airport Communications:
POTOMAC APP:118.3
ATIS:132.65
CLNC DEL:128.25
POTOMAC DEP:118.95
GND:121.7
WASHINGTON TWR:119.1
UNICOM:122.95

KDCA Zoom In..

If you have problems with the map follow the link
https://www.worldairports.se/pages/airport.php?
ICAO=KDCA

Runways:

(A) RW 01 length 7169 ft width 150 ft
ILS 109.90 / hdg 5

(B) RW 04 length 4911 ft width 150 ft
---- / hdg 35

(C) RW 15 length 5204 ft width 150 ft
---- / hdg 152

(D) RW 19 length 7169 ft width 150 ft
---- / hdg 185

(E) RW 22 length 4911 ft width 150 ft
---- / hdg 215

(F) RW 33 length 5204 ft width 150 ft
---- / hdg 332

Location; KDCA
Day. 14 / Time. 05.52 Zulu
* Altimeter: 29.73
* Temperature: 06° c. 42.8°f.
* Wind from: 320° Speed 10 kn.
Dewpoint: 05° c.
Visibility: 6 Statute Miles.
Clouds: Overcast 600 ft.
Conditions: Light Rain.Conditions: Mist.

KDCA 140552Z 32010KT 6SM -RA BR OVC006 06/05 A2973 RMK AO2 SLP068 P0003 60015 T00560050 10061 20050 56055


Wind From 320°
Speed 10 kn.

 
 
jpsmedia worldairports.se 2019   terms of use